sensor_id;sensor_type;location;lat;lon;timestamp;temperature;humidity
26182;DHT22;13927;51.534;11.866;2023-03-14T03:49:40;10.50;99.90
26182;DHT22;13927;51.534;11.866;2023-03-14T03:52:06;10.40;99.90
26182;DHT22;13927;51.534;11.866;2023-03-14T03:54:35;10.30;99.90
26182;DHT22;13927;51.534;11.866;2023-03-14T03:57:01;10.20;99.90
26182;DHT22;13927;51.534;11.866;2023-03-14T03:59:27;10.10;99.90
26182;DHT22;13927;51.534;11.866;2023-03-14T04:01:52;10.10;99.90
26182;DHT22;13927;51.534;11.866;2023-03-14T04:04:18;10.10;99.90
26182;DHT22;13927;51.534;11.866;2023-03-14T04:06:44;10.00;99.90
26182;DHT22;13927;51.534;11.866;2023-03-14T04:09:11;10.00;99.90
26182;DHT22;13927;51.534;11.866;2023-03-14T04:11:37;10.00;99.90
26182;DHT22;13927;51.534;11.866;2023-03-14T04:14:04;10.00;99.90
26182;DHT22;13927;51.534;11.866;2023-03-14T04:16:31;10.00;99.90
26182;DHT22;13927;51.534;11.866;2023-03-14T04:18:57;10.10;99.90
26182;DHT22;13927;51.534;11.866;2023-03-14T04:21:23;10.20;99.90
26182;DHT22;13927;51.534;11.866;2023-03-14T04:23:49;10.30;99.90
26182;DHT22;13927;51.534;11.866;2023-03-14T04:26:16;10.30;99.90
26182;DHT22;13927;51.534;11.866;2023-03-14T04:28:41;10.40;99.90
26182;DHT22;13927;51.534;11.866;2023-03-14T04:31:33;10.50;99.90
26182;DHT22;13927;51.534;11.866;2023-03-14T04:33:59;10.50;99.90
26182;DHT22;13927;51.534;11.866;2023-03-14T04:36:24;10.60;99.90
26182;DHT22;13927;51.534;11.866;2023-03-14T04:38:50;10.60;99.90
26182;DHT22;13927;51.534;11.866;2023-03-14T04:41:16;10.60;99.90
26182;DHT22;13927;51.534;11.866;2023-03-14T04:43:41;10.70;99.90
26182;DHT22;13927;51.534;11.866;2023-03-14T04:46:07;10.70;99.90
26182;DHT22;13927;51.534;11.866;2023-03-14T04:48:32;10.80;99.90
26182;DHT22;13927;51.534;11.866;2023-03-14T04:50:58;10.70;99.90
26182;DHT22;13927;51.534;11.866;2023-03-14T04:53:24;10.80;99.90
26182;DHT22;13927;51.534;11.866;2023-03-14T04:55:51;10.90;99.90
26182;DHT22;13927;51.534;11.866;2023-03-14T04:58:19;10.90;99.90
26182;DHT22;13927;51.534;11.866;2023-03-14T05:00:46;10.90;99.90
26182;DHT22;13927;51.534;11.866;2023-03-14T05:03:15;10.90;99.90
26182;DHT22;13927;51.534;11.866;2023-03-14T05:05:46;10.80;99.90
26182;DHT22;13927;51.534;11.866;2023-03-14T05:08:12;10.90;99.90
26182;DHT22;13927;51.534;11.866;2023-03-14T05:10:38;10.80;99.90
26182;DHT22;13927;51.534;11.866;2023-03-14T05:13:04;10.80;99.90
26182;DHT22;13927;51.534;11.866;2023-03-14T05:15:29;10.70;99.90
26182;DHT22;13927;51.534;11.866;2023-03-14T05:17:55;10.70;99.90
26182;DHT22;13927;51.534;11.866;2023-03-14T05:20:21;10.70;99.90
26182;DHT22;13927;51.534;11.866;2023-03-14T05:22:47;10.70;99.90
26182;DHT22;13927;51.534;11.866;2023-03-14T05:25:14;10.70;99.90
26182;DHT22;13927;51.534;11.866;2023-03-14T05:27:43;10.70;99.90
26182;DHT22;13927;51.534;11.866;2023-03-14T05:30:09;10.80;99.90
26182;DHT22;13927;51.534;11.866;2023-03-14T05:32:35;10.70;99.90
26182;DHT22;13927;51.534;11.866;2023-03-14T05:35:01;10.70;99.90
26182;DHT22;13927;51.534;11.866;2023-03-14T05:37:27;10.70;99.90
26182;DHT22;13927;51.534;11.866;2023-03-14T05:39:54;10.70;99.90
26182;DHT22;13927;51.534;11.866;2023-03-14T05:42:21;10.80;99.90
26182;DHT22;13927;51.534;11.866;2023-03-14T05:44:46;10.80;99.90
26182;DHT22;13927;51.534;11.866;2023-03-14T05:47:14;10.80;99.90
26182;DHT22;13927;51.534;11.866;2023-03-14T05:49:42;10.80;99.90
26182;DHT22;13927;51.534;11.866;2023-03-14T05:52:08;10.70;99.90
26182;DHT22;13927;51.534;11.866;2023-03-14T05:54:34;10.70;99.90
26182;DHT22;13927;51.534;11.866;2023-03-14T05:57:01;10.80;99.90
26182;DHT22;13927;51.534;11.866;2023-03-14T05:59:26;10.80;99.90
26182;DHT22;13927;51.534;11.866;2023-03-14T06:01:52;10.90;99.90
26182;DHT22;13927;51.534;11.866;2023-03-14T06:04:18;10.90;99.90
26182;DHT22;13927;51.534;11.866;2023-03-14T06:06:43;10.90;99.90
26182;DHT22;13927;51.534;11.866;2023-03-14T06:09:09;11.00;99.90
26182;DHT22;13927;51.534;11.866;2023-03-14T06:11:35;11.00;99.90
26182;DHT22;13927;51.534;11.866;2023-03-14T06:14:01;11.00;99.90
26182;DHT22;13927;51.534;11.866;2023-03-14T06:20:01;11.00;99.90
26182;DHT22;13927;51.534;11.866;2023-03-14T06:22:30;11.00;99.90
26182;DHT22;13927;51.534;11.866;2023-03-14T06:24:55;11.00;99.90
26182;DHT22;13927;51.534;11.866;2023-03-14T06:27:21;11.00;99.90
26182;DHT22;13927;51.534;11.866;2023-03-14T06:29:47;11.00;99.90
26182;DHT22;13927;51.534;11.866;2023-03-14T06:32:12;11.00;99.90
26182;DHT22;13927;51.534;11.866;2023-03-14T06:34:38;11.00;99.90
26182;DHT22;13927;51.534;11.866;2023-03-14T06:37:04;11.00;99.90
26182;DHT22;13927;51.534;11.866;2023-03-14T06:39:30;11.00;99.90
26182;DHT22;13927;51.534;11.866;2023-03-14T06:42:00;11.00;99.90
26182;DHT22;13927;51.534;11.866;2023-03-14T06:44:25;10.90;99.90
26182;DHT22;13927;51.534;11.866;2023-03-14T06:46:51;11.00;99.90
26182;DHT22;13927;51.534;11.866;2023-03-14T06:49:17;11.00;99.90
26182;DHT22;13927;51.534;11.866;2023-03-14T06:51:44;11.00;99.90
26182;DHT22;13927;51.534;11.866;2023-03-14T06:54:10;11.00;99.90
26182;DHT22;13927;51.534;11.866;2023-03-14T06:56:35;11.10;99.90
26182;DHT22;13927;51.534;11.866;2023-03-14T06:59:02;11.10;99.90
26182;DHT22;13927;51.534;11.866;2023-03-14T07:01:30;11.20;99.90
26182;DHT22;13927;51.534;11.866;2023-03-14T07:03:58;11.20;99.90
26182;DHT22;13927;51.534;11.866;2023-03-14T07:06:24;11.20;99.90
26182;DHT22;13927;51.534;11.866;2023-03-14T07:08:56;11.20;99.90
26182;DHT22;13927;51.534;11.866;2023-03-14T07:11:22;11.20;99.90
26182;DHT22;13927;51.534;11.866;2023-03-14T07:13:48;11.30;99.90
26182;DHT22;13927;51.534;11.866;2023-03-14T07:16:14;11.40;99.90
26182;DHT22;13927;51.534;11.866;2023-03-14T07:18:39;11.50;99.90
26182;DHT22;13927;51.534;11.866;2023-03-14T07:21:08;11.60;99.90
26182;DHT22;13927;51.534;11.866;2023-03-14T07:23:34;11.60;99.90
26182;DHT22;13927;51.534;11.866;2023-03-14T07:26:00;11.60;99.90
26182;DHT22;13927;51.534;11.866;2023-03-14T07:28:26;11.60;99.90
26182;DHT22;13927;51.534;11.866;2023-03-14T07:30:53;11.60;99.90
26182;DHT22;13927;51.534;11.866;2023-03-14T07:33:19;11.70;99.90
26182;DHT22;13927;51.534;11.866;2023-03-14T07:35:49;11.70;99.90
26182;DHT22;13927;51.534;11.866;2023-03-14T07:38:16;11.70;99.90
26182;DHT22;13927;51.534;11.866;2023-03-14T07:40:42;11.80;99.90
26182;DHT22;13927;51.534;11.866;2023-03-14T07:43:08;12.00;99.90
26182;DHT22;13927;51.534;11.866;2023-03-14T07:45:35;12.20;99.90
26182;DHT22;13927;51.534;11.866;2023-03-14T07:48:00;12.30;99.90
26182;DHT22;13927;51.534;11.866;2023-03-14T07:50:27;12.40;99.90
26182;DHT22;13927;51.534;11.866;2023-03-14T07:52:54;12.50;99.90
26182;DHT22;13927;51.534;11.866;2023-03-14T07:55:20;12.60;99.90
26182;DHT22;13927;51.534;11.866;2023-03-14T07:57:46;12.70;99.90
26182;DHT22;13927;51.534;11.866;2023-03-14T08:00:12;12.70;99.90
26182;DHT22;13927;51.534;11.866;2023-03-14T08:02:40;12.80;99.90
26182;DHT22;13927;51.534;11.866;2023-03-14T08:05:09;12.90;99.90
26182;DHT22;13927;51.534;11.866;2023-03-14T08:07:36;12.90;99.90
26182;DHT22;13927;51.534;11.866;2023-03-14T08:10:04;12.90;99.90
26182;DHT22;13927;51.534;11.866;2023-03-14T08:12:30;12.90;99.90
26182;DHT22;13927;51.534;11.866;2023-03-14T08:14:57;12.90;99.90
26182;DHT22;13927;51.534;11.866;2023-03-14T08:17:24;12.90;99.90
26182;DHT22;13927;51.534;11.866;2023-03-14T08:19:50;12.90;99.90
26182;DHT22;13927;51.534;11.866;2023-03-14T08:22:16;12.90;99.90
26182;DHT22;13927;51.534;11.866;2023-03-14T08:24:42;13.00;99.90
26182;DHT22;13927;51.534;11.866;2023-03-14T08:27:07;13.00;99.90
26182;DHT22;13927;51.534;11.866;2023-03-14T08:29:33;13.00;99.90
26182;DHT22;13927;51.534;11.866;2023-03-14T08:31:59;13.10;99.90
26182;DHT22;13927;51.534;11.866;2023-03-14T08:34:25;13.00;99.90
26182;DHT22;13927;51.534;11.866;2023-03-14T08:36:50;12.90;99.90
26182;DHT22;13927;51.534;11.866;2023-03-14T08:39:16;12.90;99.90
26182;DHT22;13927;51.534;11.866;2023-03-14T08:41:43;12.80;99.90
26182;DHT22;13927;51.534;11.866;2023-03-14T08:44:14;12.80;99.90
26182;DHT22;13927;51.534;11.866;2023-03-14T08:46:39;12.80;99.90
26182;DHT22;13927;51.534;11.866;2023-03-14T08:49:05;12.80;99.90
26182;DHT22;13927;51.534;11.866;2023-03-14T08:51:31;12.90;99.90
26182;DHT22;13927;51.534;11.866;2023-03-14T08:53:56;12.90;99.90
26182;DHT22;13927;51.534;11.866;2023-03-14T08:56:22;12.90;99.90
26182;DHT22;13927;51.534;11.866;2023-03-14T08:58:48;12.90;99.90
26182;DHT22;13927;51.534;11.866;2023-03-14T09:01:13;13.00;99.90
26182;DHT22;13927;51.534;11.866;2023-03-14T09:03:40;13.00;99.90
26182;DHT22;13927;51.534;11.866;2023-03-14T09:06:09;13.00;99.90
26182;DHT22;13927;51.534;11.866;2023-03-14T09:08:35;13.10;99.90
26182;DHT22;13927;51.534;11.866;2023-03-14T09:11:01;13.10;99.90
26182;DHT22;13927;51.534;11.866;2023-03-14T09:13:27;13.10;99.90
26182;DHT22;13927;51.534;11.866;2023-03-14T09:15:54;13.20;99.90
26182;DHT22;13927;51.534;11.866;2023-03-14T09:18:21;13.10;99.90
26182;DHT22;13927;51.534;11.866;2023-03-14T09:20:48;13.00;99.90
26182;DHT22;13927;51.534;11.866;2023-03-14T09:23:14;13.00;99.90
26182;DHT22;13927;51.534;11.866;2023-03-14T09:25:40;12.90;99.90
26182;DHT22;13927;51.534;11.866;2023-03-14T09:28:06;12.90;99.90
26182;DHT22;13927;51.534;11.866;2023-03-14T09:30:31;13.00;99.90
26182;DHT22;13927;51.534;11.866;2023-03-14T09:32:57;13.00;99.90
26182;DHT22;13927;51.534;11.866;2023-03-14T09:35:24;13.00;99.90
26182;DHT22;13927;51.534;11.866;2023-03-14T09:37:55;13.00;99.90
26182;DHT22;13927;51.534;11.866;2023-03-14T09:40:24;13.00;99.90
26182;DHT22;13927;51.534;11.866;2023-03-14T09:42:54;12.90;99.90
26182;DHT22;13927;51.534;11.866;2023-03-14T09:45:28;12.90;99.90
26182;DHT22;13927;51.534;11.866;2023-03-14T09:47:56;12.90;99.90
26182;DHT22;13927;51.534;11.866;2023-03-14T09:50:24;12.80;99.90
26182;DHT22;13927;51.534;11.866;2023-03-14T09:52:56;12.80;99.90
26182;DHT22;13927;51.534;11.866;2023-03-14T09:55:34;12.70;99.90
26182;DHT22;13927;51.534;11.866;2023-03-14T09:58:03;12.80;99.90
26182;DHT22;13927;51.534;11.866;2023-03-14T10:00:35;12.90;99.90
26182;DHT22;13927;51.534;11.866;2023-03-14T10:03:22;13.00;99.90
26182;DHT22;13927;51.534;11.866;2023-03-14T10:05:51;13.00;99.90
26182;DHT22;13927;51.534;11.866;2023-03-14T10:08:18;13.00;99.90
26182;DHT22;13927;51.534;11.866;2023-03-14T10:10:44;13.00;99.90
26182;DHT22;13927;51.534;11.866;2023-03-14T10:13:27;13.00;99.90
26182;DHT22;13927;51.534;11.866;2023-03-14T10:16:05;13.10;99.90
26182;DHT22;13927;51.534;11.866;2023-03-14T10:18:32;13.10;99.90
26182;DHT22;13927;51.534;11.866;2023-03-14T10:21:26;13.10;99.90
26182;DHT22;13927;51.534;11.866;2023-03-14T10:23:54;13.20;99.90
26182;DHT22;13927;51.534;11.866;2023-03-14T10:26:26;13.30;99.90
26182;DHT22;13927;51.534;11.866;2023-03-14T10:28:54;13.30;99.90
26182;DHT22;13927;51.534;11.866;2023-03-14T10:31:54;13.30;99.90
26182;DHT22;13927;51.534;11.866;2023-03-14T10:34:28;13.20;99.90
26182;DHT22;13927;51.534;11.866;2023-03-14T10:36:59;13.00;99.90
26182;DHT22;13927;51.534;11.866;2023-03-14T10:39:42;13.00;99.90
26182;DHT22;13927;51.534;11.866;2023-03-14T10:42:39;13.00;99.90
26182;DHT22;13927;51.534;11.866;2023-03-14T10:45:38;12.90;99.90
26182;DHT22;13927;51.534;11.866;2023-03-14T10:48:21;12.90;99.90
26182;DHT22;13927;51.534;11.866;2023-03-14T10:51:09;12.90;99.90
26182;DHT22;13927;51.534;11.866;2023-03-14T10:53:50;13.00;99.90
26182;DHT22;13927;51.534;11.866;2023-03-14T10:56:40;13.20;99.90
26182;DHT22;13927;51.534;11.866;2023-03-14T10:59:14;13.30;99.90
26182;DHT22;13927;51.534;11.866;2023-03-14T11:01:58;13.40;99.90
26182;DHT22;13927;51.534;11.866;2023-03-14T11:07:28;13.60;99.90
26182;DHT22;13927;51.534;11.866;2023-03-14T11:13:32;13.50;99.90
26182;DHT22;13927;51.534;11.866;2023-03-14T11:16:18;13.60;99.90
26182;DHT22;13927;51.534;11.866;2023-03-14T11:22:13;14.30;99.90
26182;DHT22;13927;51.534;11.866;2023-03-14T11:30:50;14.30;99.90
26182;DHT22;13927;51.534;11.866;2023-03-14T11:33:22;14.10;99.90
26182;DHT22;13927;51.534;11.866;2023-03-14T11:36:07;14.00;99.90
26182;DHT22;13927;51.534;11.866;2023-03-14T11:38:55;13.90;99.90
26182;DHT22;13927;51.534;11.866;2023-03-14T11:41:36;14.10;99.90
26182;DHT22;13927;51.534;11.866;2023-03-14T11:44:36;14.10;99.90
26182;DHT22;13927;51.534;11.866;2023-03-14T11:47:17;14.20;99.90
26182;DHT22;13927;51.534;11.866;2023-03-14T11:50:04;14.40;99.90
26182;DHT22;13927;51.534;11.866;2023-03-14T11:53:08;14.40;99.90
26182;DHT22;13927;51.534;11.866;2023-03-14T11:58:55;13.90;99.90
26182;DHT22;13927;51.534;11.866;2023-03-14T12:01:31;13.70;99.90
26182;DHT22;13927;51.534;11.866;2023-03-14T12:04:05;13.70;99.90
26182;DHT22;13927;51.534;11.866;2023-03-14T12:06:48;13.60;99.90
26182;DHT22;13927;51.534;11.866;2023-03-14T12:09:18;13.70;99.90
26182;DHT22;13927;51.534;11.866;2023-03-14T12:12:04;13.80;99.90
26182;DHT22;13927;51.534;11.866;2023-03-14T12:14:33;13.80;99.90
26182;DHT22;13927;51.534;11.866;2023-03-14T12:17:18;13.80;99.90
26182;DHT22;13927;51.534;11.866;2023-03-14T12:20:15;13.90;99.90
26182;DHT22;13927;51.534;11.866;2023-03-14T12:23:04;14.00;99.90
26182;DHT22;13927;51.534;11.866;2023-03-14T12:25:33;14.00;99.90
26182;DHT22;13927;51.534;11.866;2023-03-14T12:28:22;13.90;99.90
26182;DHT22;13927;51.534;11.866;2023-03-14T12:30:55;13.80;99.90
26182;DHT22;13927;51.534;11.866;2023-03-14T12:33:27;13.80;99.90
26182;DHT22;13927;51.534;11.866;2023-03-14T12:36:10;13.90;99.90
26182;DHT22;13927;51.534;11.866;2023-03-14T12:38:52;14.40;99.90
26182;DHT22;13927;51.534;11.866;2023-03-14T12:41:44;15.00;99.90
26182;DHT22;13927;51.534;11.866;2023-03-14T12:49:49;15.90;99.90
26182;DHT22;13927;51.534;11.866;2023-03-14T12:52:22;15.80;99.90
26182;DHT22;13927;51.534;11.866;2023-03-14T12:55:09;15.80;99.90
26182;DHT22;13927;51.534;11.866;2023-03-14T12:58:15;15.20;99.90
26182;DHT22;13927;51.534;11.866;2023-03-14T13:00:59;15.00;99.90
26182;DHT22;13927;51.534;11.866;2023-03-14T13:03:45;15.30;99.90
26182;DHT22;13927;51.534;11.866;2023-03-14T13:12:14;15.50;99.90
26182;DHT22;13927;51.534;11.866;2023-03-14T13:14:48;15.20;99.90
26182;DHT22;13927;51.534;11.866;2023-03-14T13:17:24;14.90;99.90
26182;DHT22;13927;51.534;11.866;2023-03-14T13:19:55;14.70;99.90
26182;DHT22;13927;51.534;11.866;2023-03-14T13:22:27;14.70;99.90
26182;DHT22;13927;51.534;11.866;2023-03-14T13:25:07;14.80;99.90
26182;DHT22;13927;51.534;11.866;2023-03-14T13:27:36;14.80;99.90
26182;DHT22;13927;51.534;11.866;2023-03-14T13:30:14;14.90;99.90
26182;DHT22;13927;51.534;11.866;2023-03-14T13:32:43;15.00;99.90
26182;DHT22;13927;51.534;11.866;2023-03-14T13:35:21;15.00;99.90
26182;DHT22;13927;51.534;11.866;2023-03-14T13:38:01;14.90;99.90
26182;DHT22;13927;51.534;11.866;2023-03-14T13:40:32;14.80;99.90
26182;DHT22;13927;51.534;11.866;2023-03-14T13:43:05;14.70;99.90
26182;DHT22;13927;51.534;11.866;2023-03-14T13:45:55;14.70;99.90
26182;DHT22;13927;51.534;11.866;2023-03-14T13:48:30;14.50;99.90
26182;DHT22;13927;51.534;11.866;2023-03-14T13:51:09;14.40;99.90
26182;DHT22;13927;51.534;11.866;2023-03-14T13:53:52;14.40;99.90
26182;DHT22;13927;51.534;11.866;2023-03-14T13:56:20;14.30;99.90
26182;DHT22;13927;51.534;11.866;2023-03-14T13:58:47;14.20;99.90
26182;DHT22;13927;51.534;11.866;2023-03-14T14:01:42;14.20;99.90
26182;DHT22;13927;51.534;11.866;2023-03-14T14:04:14;14.20;99.90
26182;DHT22;13927;51.534;11.866;2023-03-14T14:06:47;14.20;99.90
26182;DHT22;13927;51.534;11.866;2023-03-14T14:09:47;14.10;99.90
26182;DHT22;13927;51.534;11.866;2023-03-14T14:14:58;13.90;99.90
26182;DHT22;13927;51.534;11.866;2023-03-14T14:22:57;13.40;99.90
26182;DHT22;13927;51.534;11.866;2023-03-14T14:25:23;13.10;99.90
26182;DHT22;13927;51.534;11.866;2023-03-14T14:27:50;12.80;99.90
26182;DHT22;13927;51.534;11.866;2023-03-14T14:32:46;12.20;99.90
26182;DHT22;13927;51.534;11.866;2023-03-14T14:35:48;10.50;99.90
26182;DHT22;13927;51.534;11.866;2023-03-14T14:38:22;9.10;99.90
26182;DHT22;13927;51.534;11.866;2023-03-14T14:40:54;7.90;99.90
26182;DHT22;13927;51.534;11.866;2023-03-14T14:43:27;7.40;99.90
26182;DHT22;13927;51.534;11.866;2023-03-14T14:45:54;7.10;99.90
26182;DHT22;13927;51.534;11.866;2023-03-14T14:48:27;6.80;99.90
26182;DHT22;13927;51.534;11.866;2023-03-14T14:51:00;6.60;99.90
26182;DHT22;13927;51.534;11.866;2023-03-14T14:53:30;6.60;99.90
26182;DHT22;13927;51.534;11.866;2023-03-14T14:56:15;6.50;99.90
26182;DHT22;13927;51.534;11.866;2023-03-14T14:58:45;6.60;99.90
26182;DHT22;13927;51.534;11.866;2023-03-14T15:01:16;6.50;99.90
26182;DHT22;13927;51.534;11.866;2023-03-14T15:03:45;6.50;99.90
26182;DHT22;13927;51.534;11.866;2023-03-14T15:06:13;6.40;99.90
26182;DHT22;13927;51.534;11.866;2023-03-14T15:08:40;6.30;99.90
26182;DHT22;13927;51.534;11.866;2023-03-14T15:11:08;6.30;99.90
26182;DHT22;13927;51.534;11.866;2023-03-14T15:13:43;6.20;99.90
26182;DHT22;13927;51.534;11.866;2023-03-14T15:16:15;6.10;99.90
26182;DHT22;13927;51.534;11.866;2023-03-14T15:18:43;6.00;99.90
26182;DHT22;13927;51.534;11.866;2023-03-14T15:21:10;5.90;99.90
26182;DHT22;13927;51.534;11.866;2023-03-14T15:23:37;5.90;99.90
26182;DHT22;13927;51.534;11.866;2023-03-14T15:26:11;5.80;99.90
26182;DHT22;13927;51.534;11.866;2023-03-14T15:28:39;5.70;99.90
26182;DHT22;13927;51.534;11.866;2023-03-14T15:31:05;5.50;99.90
26182;DHT22;13927;51.534;11.866;2023-03-14T15:33:30;5.50;99.90
26182;DHT22;13927;51.534;11.866;2023-03-14T15:35:56;5.40;99.90
26182;DHT22;13927;51.534;11.866;2023-03-14T15:38:22;5.40;99.90
26182;DHT22;13927;51.534;11.866;2023-03-14T15:40:50;5.30;99.90
26182;DHT22;13927;51.534;11.866;2023-03-14T15:43:16;5.20;99.90
26182;DHT22;13927;51.534;11.866;2023-03-14T15:45:44;5.10;99.90
26182;DHT22;13927;51.534;11.866;2023-03-14T15:48:15;5.00;99.90
26182;DHT22;13927;51.534;11.866;2023-03-14T15:50:43;5.00;99.90
26182;DHT22;13927;51.534;11.866;2023-03-14T15:53:09;4.90;99.90
26182;DHT22;13927;51.534;11.866;2023-03-14T15:55:34;4.90;99.90
26182;DHT22;13927;51.534;11.866;2023-03-14T15:58:00;4.80;99.90
26182;DHT22;13927;51.534;11.866;2023-03-14T16:00:28;4.70;99.90
26182;DHT22;13927;51.534;11.866;2023-03-14T16:02:55;4.70;99.90
26182;DHT22;13927;51.534;11.866;2023-03-14T16:05:22;4.60;99.90
26182;DHT22;13927;51.534;11.866;2023-03-14T16:07:48;4.60;99.90
26182;DHT22;13927;51.534;11.866;2023-03-14T16:10:15;4.60;99.90
26182;DHT22;13927;51.534;11.866;2023-03-14T16:12:45;4.60;99.90
26182;DHT22;13927;51.534;11.866;2023-03-14T16:15:11;4.50;99.90
26182;DHT22;13927;51.534;11.866;2023-03-14T16:17:36;4.50;99.90
26182;DHT22;13927;51.534;11.866;2023-03-14T16:20:08;4.50;99.90
26182;DHT22;13927;51.534;11.866;2023-03-14T16:22:34;4.40;99.90
26182;DHT22;13927;51.534;11.866;2023-03-14T16:25:03;4.40;99.90
26182;DHT22;13927;51.534;11.866;2023-03-14T16:27:30;4.30;99.90
26182;DHT22;13927;51.534;11.866;2023-03-14T16:30:06;4.30;99.90
26182;DHT22;13927;51.534;11.866;2023-03-14T16:32:35;4.30;99.90
26182;DHT22;13927;51.534;11.866;2023-03-14T16:35:01;4.30;99.90
26182;DHT22;13927;51.534;11.866;2023-03-14T16:37:27;4.40;99.90
26182;DHT22;13927;51.534;11.866;2023-03-14T16:40:03;4.40;99.90
26182;DHT22;13927;51.534;11.866;2023-03-14T16:42:33;4.40;99.90
26182;DHT22;13927;51.534;11.866;2023-03-14T16:45:03;4.40;99.90
26182;DHT22;13927;51.534;11.866;2023-03-14T16:47:30;4.40;99.90
26182;DHT22;13927;51.534;11.866;2023-03-14T16:49:56;4.50;99.90
26182;DHT22;13927;51.534;11.866;2023-03-14T16:52:22;4.50;99.90
26182;DHT22;13927;51.534;11.866;2023-03-14T16:54:47;4.50;99.90
26182;DHT22;13927;51.534;11.866;2023-03-14T16:57:13;4.50;99.90
26182;DHT22;13927;51.534;11.866;2023-03-14T16:59:39;4.60;99.90
26182;DHT22;13927;51.534;11.866;2023-03-14T17:02:05;4.60;99.90
26182;DHT22;13927;51.534;11.866;2023-03-14T17:04:30;4.60;99.90
26182;DHT22;13927;51.534;11.866;2023-03-14T17:06:56;4.60;99.90
26182;DHT22;13927;51.534;11.866;2023-03-14T17:09:22;4.60;99.90
26182;DHT22;13927;51.534;11.866;2023-03-14T17:11:47;4.70;99.90
26182;DHT22;13927;51.534;11.866;2023-03-14T17:14:13;4.70;99.90
26182;DHT22;13927;51.534;11.866;2023-03-14T17:16:39;4.70;99.90
26182;DHT22;13927;51.534;11.866;2023-03-14T17:19:04;4.70;99.90
26182;DHT22;13927;51.534;11.866;2023-03-14T17:21:30;4.70;99.90
26182;DHT22;13927;51.534;11.866;2023-03-14T17:23:56;4.80;99.90
26182;DHT22;13927;51.534;11.866;2023-03-14T17:26:22;4.70;99.90
26182;DHT22;13927;51.534;11.866;2023-03-14T17:28:49;4.70;99.90
26182;DHT22;13927;51.534;11.866;2023-03-14T17:31:17;4.80;99.90
26182;DHT22;13927;51.534;11.866;2023-03-14T17:33:43;4.80;99.90
26182;DHT22;13927;51.534;11.866;2023-03-14T17:36:10;4.80;99.90
26182;DHT22;13927;51.534;11.866;2023-03-14T17:38:38;4.80;99.90
26182;DHT22;13927;51.534;11.866;2023-03-14T17:41:08;4.70;99.90
26182;DHT22;13927;51.534;11.866;2023-03-14T17:43:37;4.70;99.90
26182;DHT22;13927;51.534;11.866;2023-03-14T17:46:07;4.70;99.90
26182;DHT22;13927;51.534;11.866;2023-03-14T17:48:36;4.70;99.90
26182;DHT22;13927;51.534;11.866;2023-03-14T17:51:03;4.70;99.90
26182;DHT22;13927;51.534;11.866;2023-03-14T17:53:29;4.60;99.90
26182;DHT22;13927;51.534;11.866;2023-03-14T17:55:55;4.60;99.90
26182;DHT22;13927;51.534;11.866;2023-03-14T17:58:24;4.60;99.90
26182;DHT22;13927;51.534;11.866;2023-03-14T18:00:55;4.50;99.90
26182;DHT22;13927;51.534;11.866;2023-03-14T18:03:21;4.50;99.90
26182;DHT22;13927;51.534;11.866;2023-03-14T18:05:47;4.50;99.90
26182;DHT22;13927;51.534;11.866;2023-03-14T18:08:13;4.50;99.90
26182;DHT22;13927;51.534;11.866;2023-03-14T18:10:39;4.40;99.90
26182;DHT22;13927;51.534;11.866;2023-03-14T18:13:05;4.40;99.90
26182;DHT22;13927;51.534;11.866;2023-03-14T18:15:31;4.40;99.90
26182;DHT22;13927;51.534;11.866;2023-03-14T18:17:58;4.40;99.90
26182;DHT22;13927;51.534;11.866;2023-03-14T18:20:28;4.40;99.90
26182;DHT22;13927;51.534;11.866;2023-03-14T18:22:54;4.40;99.90
26182;DHT22;13927;51.534;11.866;2023-03-14T18:25:20;4.40;99.90
26182;DHT22;13927;51.534;11.866;2023-03-14T18:27:46;4.50;99.90
26182;DHT22;13927;51.534;11.866;2023-03-14T18:30:13;4.50;99.90
26182;DHT22;13927;51.534;11.866;2023-03-14T18:32:40;4.50;99.90
26182;DHT22;13927;51.534;11.866;2023-03-14T18:35:07;4.50;99.90
26182;DHT22;13927;51.534;11.866;2023-03-14T18:37:32;4.50;99.90
26182;DHT22;13927;51.534;11.866;2023-03-14T18:39:58;4.50;99.90
26182;DHT22;13927;51.534;11.866;2023-03-14T18:42:24;4.50;99.90
26182;DHT22;13927;51.534;11.866;2023-03-14T18:44:49;4.50;99.90
26182;DHT22;13927;51.534;11.866;2023-03-14T18:47:15;4.50;99.90
26182;DHT22;13927;51.534;11.866;2023-03-14T18:49:41;4.50;99.90
26182;DHT22;13927;51.534;11.866;2023-03-14T18:52:06;4.50;99.90
26182;DHT22;13927;51.534;11.866;2023-03-14T18:54:32;4.50;99.90
26182;DHT22;13927;51.534;11.866;2023-03-14T18:56:58;4.50;99.90
26182;DHT22;13927;51.534;11.866;2023-03-14T18:59:24;4.50;99.90
26182;DHT22;13927;51.534;11.866;2023-03-14T19:01:50;4.50;99.90
26182;DHT22;13927;51.534;11.866;2023-03-14T19:04:16;4.40;99.90
26182;DHT22;13927;51.534;11.866;2023-03-14T19:06:43;4.40;99.90
26182;DHT22;13927;51.534;11.866;2023-03-14T19:09:12;4.40;99.90
26182;DHT22;13927;51.534;11.866;2023-03-14T19:11:39;4.30;99.90
26182;DHT22;13927;51.534;11.866;2023-03-14T19:14:05;4.30;99.90
26182;DHT22;13927;51.534;11.866;2023-03-14T19:16:31;4.20;99.90
26182;DHT22;13927;51.534;11.866;2023-03-14T19:18:57;4.10;99.90
26182;DHT22;13927;51.534;11.866;2023-03-14T19:21:48;4.00;99.90
26182;DHT22;13927;51.534;11.866;2023-03-14T19:24:17;3.90;99.90
26182;DHT22;13927;51.534;11.866;2023-03-14T19:26:44;3.90;99.90
26182;DHT22;13927;51.534;11.866;2023-03-14T19:29:10;3.90;99.90
26182;DHT22;13927;51.534;11.866;2023-03-14T19:31:38;3.90;99.90
26182;DHT22;13927;51.534;11.866;2023-03-14T19:34:03;3.90;99.90
26182;DHT22;13927;51.534;11.866;2023-03-14T19:36:32;3.90;99.90
26182;DHT22;13927;51.534;11.866;2023-03-14T19:39:00;3.80;99.90
26182;DHT22;13927;51.534;11.866;2023-03-14T19:41:30;3.80;99.90
26182;DHT22;13927;51.534;11.866;2023-03-14T19:43:56;3.70;99.90
26182;DHT22;13927;51.534;11.866;2023-03-14T19:46:22;3.70;99.90
26182;DHT22;13927;51.534;11.866;2023-03-14T19:48:48;3.70;99.90
26182;DHT22;13927;51.534;11.866;2023-03-14T19:51:18;3.70;99.90
26182;DHT22;13927;51.534;11.866;2023-03-14T19:53:44;3.60;99.90
26182;DHT22;13927;51.534;11.866;2023-03-14T19:56:12;3.60;99.90
26182;DHT22;13927;51.534;11.866;2023-03-14T19:58:38;3.60;99.90
26182;DHT22;13927;51.534;11.866;2023-03-14T20:01:05;3.50;99.90
26182;DHT22;13927;51.534;11.866;2023-03-14T20:03:32;3.50;99.90
26182;DHT22;13927;51.534;11.866;2023-03-14T20:06:06;3.50;99.90
26182;DHT22;13927;51.534;11.866;2023-03-14T20:08:33;3.50;99.90
26182;DHT22;13927;51.534;11.866;2023-03-14T20:11:03;3.40;99.90
26182;DHT22;13927;51.534;11.866;2023-03-14T20:13:29;3.40;99.90